createdAt,value
2022-09-01T00:01:53.102Z,13.94
2022-09-01T00:04:25.856Z,14.02
2022-09-01T00:06:54.739Z,14.09
2022-09-01T00:09:23.361Z,14.26
2022-09-01T00:11:53.354Z,14.32
2022-09-01T00:14:30.732Z,14.32
2022-09-01T00:17:04.174Z,14.09
2022-09-01T00:19:33.336Z,14.07
2022-09-01T00:22:00.398Z,13.98
2022-09-01T00:24:28.269Z,13.93
2022-09-01T00:26:56.069Z,13.84
2022-09-01T00:29:24.695Z,13.71
2022-09-01T00:31:51.690Z,13.68
2022-09-01T00:34:18.441Z,13.83
2022-09-01T00:36:45.134Z,13.51
2022-09-01T00:39:13.757Z,13.52
2022-09-01T00:41:43.740Z,13.53
2022-09-01T00:44:14.383Z,13.56
2022-09-01T00:46:47.771Z,13.44
2022-09-01T00:49:19.967Z,13.34
2022-09-01T00:51:49.112Z,13.29
2022-09-01T00:54:24.304Z,13.12
2022-09-01T00:56:53.054Z,13.24
2022-09-01T00:59:26.495Z,13.06
2022-09-01T01:01:55.159Z,13.32
2022-09-01T01:04:23.198Z,13.38
2022-09-01T01:07:01.693Z,13.36
2022-09-01T01:09:33.071Z,13.12
2022-09-01T01:12:00.652Z,13.25
2022-09-01T01:14:32.240Z,13.14
2022-09-01T01:17:01.078Z,13.31
2022-09-01T01:19:55.468Z,13.38
2022-09-01T01:22:52.790Z,13.39
2022-09-01T01:25:22.315Z,13.58
2022-09-01T01:27:49.406Z,13.42
2022-09-01T01:30:18.990Z,13.38
2022-09-01T01:32:47.602Z,13.30
2022-09-01T01:35:16.922Z,13.35
2022-09-01T01:37:46.479Z,13.26
2022-09-01T01:40:18.944Z,13.29
2022-09-01T01:42:48.015Z,13.34
2022-09-01T01:45:18.118Z,13.38
2022-09-01T01:47:53.102Z,13.39
2022-09-01T01:50:26.302Z,13.48
2022-09-01T01:52:58.206Z,13.44
2022-09-01T01:55:28.634Z,13.45
2022-09-01T01:57:56.256Z,13.51
2022-09-01T02:00:30.110Z,13.57
2022-09-01T02:02:58.736Z,13.65
2022-09-01T02:05:36.322Z,13.39
2022-09-01T02:08:07.679Z,13.52
2022-09-01T02:10:40.566Z,13.88
2022-09-01T02:13:08.175Z,13.62
2022-09-01T02:15:43.675Z,13.39
2022-09-01T02:18:16.463Z,13.30
2022-09-01T02:20:44.649Z,13.13
2022-09-01T02:23:12.312Z,13.07
2022-09-01T02:26:05.257Z,12.88
2022-09-01T02:28:34.883Z,12.89
2022-09-01T02:31:03.946Z,12.83
2022-09-01T02:33:32.443Z,12.75
2022-09-01T02:36:02.480Z,12.64
2022-09-01T02:38:29.800Z,12.65
2022-09-01T02:41:02.074Z,12.64
2022-09-01T02:43:29.814Z,12.64
2022-09-01T02:45:59.676Z,12.72
2022-09-01T02:48:34.102Z,12.71
2022-09-01T02:51:04.367Z,12.68
2022-09-01T02:53:34.193Z,12.68
2022-09-01T02:56:02.454Z,12.73
2022-09-01T02:58:32.957Z,12.70
2022-09-01T03:01:00.411Z,12.45
2022-09-01T03:03:29.675Z,12.47
2022-09-01T03:05:56.398Z,12.46
2022-09-01T03:08:24.467Z,12.64
2022-09-01T03:10:53.929Z,12.57
2022-09-01T03:13:27.322Z,12.60
2022-09-01T03:15:53.941Z,12.57
2022-09-01T03:18:21.250Z,12.66
2022-09-01T03:20:50.948Z,12.52
2022-09-01T03:23:19.334Z,12.25
2022-09-01T03:25:47.727Z,12.35
2022-09-01T03:28:15.527Z,12.27
2022-09-01T03:30:49.758Z,12.32
2022-09-01T03:33:19.034Z,12.28
2022-09-01T03:35:46.503Z,12.20
2022-09-01T03:38:24.289Z,12.36
2022-09-01T03:41:02.002Z,12.36
2022-09-01T03:43:36.113Z,12.39
2022-09-01T03:46:03.349Z,12.29
2022-09-01T03:48:32.195Z,12.48
2022-09-01T03:51:03.169Z,12.18
2022-09-01T03:53:36.657Z,12.17
2022-09-01T03:56:04.454Z,12.24
2022-09-01T03:58:31.782Z,12.28
2022-09-01T04:01:02.862Z,12.31
2022-09-01T04:03:32.134Z,12.17
2022-09-01T04:06:00.001Z,12.22
2022-09-01T04:08:32.799Z,12.16
2022-09-01T04:11:05.142Z,12.06
2022-09-01T04:13:36.251Z,12.06
2022-09-01T04:16:10.416Z,11.90
2022-09-01T04:18:39.966Z,12.03
2022-09-01T04:21:08.065Z,11.82
2022-09-01T04:23:36.977Z,11.74
2022-09-01T04:26:08.929Z,12.18
2022-09-01T04:28:39.190Z,12.06
2022-09-01T04:31:09.170Z,12.19
2022-09-01T04:33:39.759Z,11.95
2022-09-01T04:36:14.236Z,11.99
2022-09-01T04:38:40.806Z,12.10
2022-09-01T04:41:09.375Z,11.97
2022-09-01T04:43:36.286Z,11.85
2022-09-01T04:46:03.328Z,11.94
2022-09-01T04:48:31.692Z,12.00
2022-09-01T04:50:58.630Z,11.69
2022-09-01T04:53:27.602Z,12.02
2022-09-01T04:55:55.334Z,11.98
2022-09-01T04:58:22.334Z,12.30
2022-09-01T05:00:52.237Z,11.99
2022-09-01T05:03:23.419Z,11.93
2022-09-01T05:05:50.518Z,11.94
2022-09-01T05:08:23.678Z,11.89
2022-09-01T05:10:55.449Z,12.12
2022-09-01T05:13:23.511Z,11.99
2022-09-01T05:16:02.484Z,12.01
2022-09-01T05:18:29.494Z,11.89
2022-09-01T05:20:57.458Z,12.07
2022-09-01T05:23:26.417Z,11.90
2022-09-01T05:25:54.833Z,11.90
2022-09-01T05:28:25.193Z,11.95
2022-09-01T05:30:54.264Z,12.04
2022-09-01T05:33:22.074Z,11.98
2022-09-01T05:35:55.512Z,12.04
2022-09-01T05:38:24.131Z,12.26
2022-09-01T05:41:08.578Z,12.71
2022-09-01T05:43:36.971Z,12.34
2022-09-01T05:46:08.530Z,12.65
2022-09-01T05:48:39.714Z,12.65
2022-09-01T05:51:22.365Z,12.79
2022-09-01T05:53:58.883Z,12.91
2022-09-01T05:56:26.574Z,13.03
2022-09-01T06:01:45.672Z,13.14
2022-09-01T06:04:16.026Z,13.24
2022-09-01T06:07:06.179Z,13.12
2022-09-01T06:09:33.510Z,13.23
2022-09-01T06:12:02.757Z,13.50
2022-09-01T06:14:29.414Z,13.71
2022-09-01T06:16:56.330Z,13.64
2022-09-01T06:19:23.122Z,13.82
2022-09-01T06:21:49.957Z,13.83
2022-09-01T06:24:18.012Z,13.71
2022-09-01T06:26:46.446Z,14.08
2022-09-01T06:29:15.626Z,14.13
2022-09-01T06:31:51.741Z,14.40
2022-09-01T06:34:19.810Z,14.74
2022-09-01T06:36:49.544Z,15.02
2022-09-01T06:39:22.111Z,15.17
2022-09-01T06:41:52.577Z,15.30
2022-09-01T06:44:22.898Z,15.36
2022-09-01T06:46:53.129Z,15.53
2022-09-01T06:49:21.491Z,15.47
2022-09-01T06:51:49.590Z,15.52
2022-09-01T06:54:19.093Z,15.53
2022-09-01T06:56:51.750Z,15.60
2022-09-01T06:59:20.885Z,15.55
2022-09-01T07:01:49.022Z,15.61
2022-09-01T07:04:21.396Z,15.67
2022-09-01T07:07:00.243Z,15.69
2022-09-01T07:09:38.982Z,15.76
2022-09-01T07:12:27.755Z,15.69
2022-09-01T07:17:43.090Z,15.97
2022-09-01T07:20:27.185Z,15.99
2022-09-01T07:23:04.470Z,15.92
2022-09-01T07:26:00.325Z,16.02
2022-09-01T07:28:36.146Z,16.07
2022-09-01T07:33:55.765Z,15.96
2022-09-01T07:45:27.367Z,16.07
2022-09-01T07:47:55.558Z,16.15
2022-09-01T07:50:39.712Z,16.20
2022-09-01T07:53:09.931Z,16.45
2022-09-01T07:55:41.215Z,16.43
2022-09-01T07:58:08.516Z,16.29
2022-09-01T08:00:35.246Z,16.42
2022-09-01T08:03:01.984Z,16.29
2022-09-01T08:05:28.879Z,16.54
2022-09-01T08:07:55.637Z,16.56
2022-09-01T08:10:22.441Z,16.67
2022-09-01T08:12:56.288Z,17.02
2022-09-01T08:15:41.386Z,16.99
2022-09-01T08:18:14.380Z,16.86
2022-09-01T08:20:45.406Z,16.85
2022-09-01T08:23:14.787Z,17.20
2022-09-01T08:25:42.727Z,17.07
2022-09-01T08:28:10.112Z,17.22
2022-09-01T08:30:40.229Z,16.78
2022-09-01T08:33:11.123Z,17.05
2022-09-01T08:35:39.923Z,17.09
2022-09-01T08:38:06.926Z,17.20
2022-09-01T08:40:34.396Z,17.34
2022-09-01T08:43:14.600Z,17.48
2022-09-01T08:45:57.871Z,17.04
2022-09-01T08:49:23.559Z,17.36
2022-09-01T08:51:38.284Z,17.12
2022-09-01T08:54:15.687Z,17.31
2022-09-01T08:56:47.305Z,17.49
2022-09-01T08:59:15.854Z,17.31
2022-09-01T09:02:02.534Z,17.19
2022-09-01T09:04:51.022Z,17.27
2022-09-01T09:08:10.323Z,17.60
2022-09-01T09:11:00.089Z,17.36
2022-09-01T09:13:50.079Z,17.72
2022-09-01T09:16:21.717Z,17.94
2022-09-01T09:19:00.908Z,17.62
2022-09-01T09:21:35.440Z,17.07
2022-09-01T09:24:47.055Z,17.24
2022-09-01T09:27:42.301Z,18.07
2022-09-01T09:30:12.791Z,18.32
2022-09-01T09:35:45.163Z,17.77
2022-09-01T09:38:24.325Z,17.90
2022-09-01T09:41:19.870Z,17.88
2022-09-01T09:43:59.391Z,18.08
2022-09-01T09:46:28.096Z,18.26
2022-09-01T09:49:09.172Z,18.42
2022-09-01T09:51:37.878Z,18.64
2022-09-01T09:54:25.565Z,18.58
2022-09-01T09:57:22.501Z,18.57
2022-09-01T10:00:06.482Z,18.54
2022-09-01T10:02:38.940Z,18.34
2022-09-01T10:05:24.952Z,18.65
2022-09-01T10:07:52.872Z,18.40
2022-09-01T10:10:57.834Z,18.34
2022-09-01T10:13:29.027Z,18.90
2022-09-01T10:15:59.704Z,18.83
2022-09-01T10:18:35.292Z,19.07
2022-09-01T10:21:08.447Z,19.01
2022-09-01T10:23:37.710Z,18.81
2022-09-01T10:26:14.690Z,19.01
2022-09-01T10:29:12.179Z,18.93
2022-09-01T10:31:41.083Z,18.89
2022-09-01T10:34:13.393Z,18.92
2022-09-01T10:36:42.703Z,19.17
2022-09-01T10:39:22.204Z,19.26
2022-09-01T10:41:59.791Z,19.40
2022-09-01T10:44:34.097Z,19.02
2022-09-01T10:47:13.599Z,18.96
2022-09-01T10:49:47.184Z,19.48
2022-09-01T10:52:43.248Z,19.64
2022-09-01T10:55:26.871Z,19.64
2022-09-01T10:59:30.279Z,19.72
2022-09-01T11:03:53.366Z,19.55
2022-09-01T11:10:11.825Z,19.55
2022-09-01T11:13:22.883Z,19.77
2022-09-01T11:15:50.393Z,19.54
2022-09-01T11:18:29.407Z,19.86
2022-09-01T11:21:15.083Z,19.97
2022-09-01T11:23:41.714Z,19.81
2022-09-01T11:26:33.038Z,19.88
2022-09-01T11:29:01.187Z,19.85
2022-09-01T11:31:38.223Z,19.92
2022-09-01T11:34:13.093Z,20.02
2022-09-01T11:36:49.205Z,20.15
2022-09-01T11:39:26.729Z,20.38
2022-09-01T11:42:03.504Z,19.98
2022-09-01T11:44:37.093Z,20.52
2022-09-01T11:47:13.520Z,20.41
2022-09-01T11:50:02.177Z,20.55
2022-09-01T11:52:32.520Z,20.60
2022-09-01T11:54:59.459Z,20.83
2022-09-01T11:57:38.180Z,20.94
2022-09-01T12:00:11.115Z,20.65
2022-09-01T12:02:45.465Z,20.79
2022-09-01T12:05:35.177Z,21.14
2022-09-01T12:08:05.470Z,21.09
2022-09-01T12:10:40.252Z,21.24
2022-09-01T12:13:10.674Z,21.03
2022-09-01T12:16:07.019Z,21.20
2022-09-01T12:18:37.226Z,21.22
2022-09-01T12:21:07.766Z,21.23
2022-09-01T12:23:40.301Z,21.58
2022-09-01T12:26:10.414Z,21.18
2022-09-01T12:28:41.210Z,21.01
2022-09-01T12:31:14.660Z,21.12
2022-09-01T12:33:43.622Z,21.42
2022-09-01T12:36:28.953Z,21.58
2022-09-01T12:39:17.369Z,21.81
2022-09-01T12:41:48.520Z,21.75
2022-09-01T12:44:29.984Z,21.87
2022-09-01T12:47:07.910Z,22.06
2022-09-01T12:49:50.840Z,23.32
2022-09-01T12:52:25.882Z,25.90
2022-09-01T12:55:07.929Z,28.35
2022-09-01T12:57:45.158Z,25.89
2022-09-01T13:00:12.490Z,26.50
2022-09-01T13:02:45.253Z,27.40
2022-09-01T13:05:32.759Z,26.17
2022-09-01T13:08:04.967Z,27.27
2022-09-01T13:10:38.627Z,28.88
2022-09-01T13:13:07.362Z,26.38
2022-09-01T13:15:35.938Z,26.71
2022-09-01T13:18:03.381Z,27.45
2022-09-01T13:20:30.770Z,26.66
2022-09-01T13:22:57.495Z,28.23
2022-09-01T13:25:24.758Z,27.12
2022-09-01T13:27:54.721Z,27.56
2022-09-01T13:30:25.013Z,27.85
2022-09-01T13:35:38.957Z,26.60
2022-09-01T13:38:05.651Z,27.02
2022-09-01T13:40:32.350Z,26.74
2022-09-01T13:42:59.270Z,27.68
2022-09-01T13:45:26.082Z,27.04
2022-09-01T13:53:28.810Z,29.01
2022-09-01T13:58:22.295Z,28.36
2022-09-01T14:00:49.069Z,31.76
2022-09-01T14:03:19.851Z,28.57
2022-09-01T14:05:49.707Z,27.32
2022-09-01T14:08:20.806Z,27.24
2022-09-01T14:10:50.851Z,28.63
2022-09-01T14:13:21.239Z,26.71
2022-09-01T14:15:49.116Z,27.63
2022-09-01T14:18:17.135Z,27.21
2022-09-01T14:20:46.973Z,26.90
2022-09-01T14:23:15.093Z,26.64
2022-09-01T14:25:51.964Z,26.10
2022-09-01T14:28:20.984Z,28.49
2022-09-01T14:33:16.680Z,27.43
2022-09-01T14:35:47.202Z,30.27
2022-09-01T14:38:14.888Z,29.67
2022-09-01T14:40:43.370Z,30.03
2022-09-01T14:43:14.131Z,30.39
2022-09-01T14:45:45.819Z,28.86
2022-09-01T14:48:14.862Z,31.09
2022-09-01T14:50:44.178Z,30.42
2022-09-01T14:53:12.279Z,33.93
2022-09-01T14:55:39.017Z,31.09
2022-09-01T14:58:05.790Z,31.58
2022-09-01T15:00:35.103Z,32.21
2022-09-01T15:03:01.949Z,32.04
2022-09-01T15:05:28.680Z,29.04
2022-09-01T15:07:55.377Z,28.30
2022-09-01T15:10:25.786Z,28.43
2022-09-01T15:12:57.777Z,29.09
2022-09-01T15:15:26.097Z,28.99
2022-09-01T15:17:53.286Z,28.94
2022-09-01T15:20:38.685Z,30.25
2022-09-01T15:23:06.551Z,29.98
2022-09-01T15:25:34.061Z,31.01
2022-09-01T15:28:01.298Z,30.71
2022-09-01T15:30:28.444Z,30.20
2022-09-01T15:32:55.451Z,30.30
2022-09-01T15:35:22.904Z,30.20
2022-09-01T15:37:51.688Z,29.77
2022-09-01T15:40:19.768Z,30.13
2022-09-01T15:42:46.665Z,28.26
2022-09-01T15:45:17.884Z,27.51
2022-09-01T15:47:45.823Z,27.13
2022-09-01T15:50:20.942Z,26.68
2022-09-01T15:52:54.866Z,29.41
2022-09-01T15:55:40.803Z,27.39
2022-09-01T15:58:08.371Z,25.55
2022-09-01T16:00:35.389Z,24.19
2022-09-01T16:03:02.725Z,23.74
2022-09-01T16:05:30.794Z,23.30
2022-09-01T16:07:58.833Z,23.25
2022-09-01T16:10:25.595Z,22.52
2022-09-01T16:12:52.589Z,22.60
2022-09-01T16:15:22.240Z,22.22
2022-09-01T16:18:01.377Z,22.47
2022-09-01T16:20:38.633Z,22.09
2022-09-01T16:23:20.700Z,22.05
2022-09-01T16:25:48.157Z,21.82
2022-09-01T16:28:38.118Z,21.88
2022-09-01T16:31:12.286Z,21.66
2022-09-01T16:33:49.770Z,21.68
2022-09-01T16:36:49.119Z,21.67
2022-09-01T16:39:40.441Z,21.72
2022-09-01T16:42:18.523Z,21.46
2022-09-01T16:44:51.346Z,21.44
2022-09-01T16:48:00.295Z,21.43
2022-09-01T16:50:38.712Z,21.05
2022-09-01T16:53:35.786Z,20.17
2022-09-01T16:56:25.448Z,20.55
2022-09-01T16:59:03.323Z,20.35
2022-09-01T17:01:52.902Z,20.06
2022-09-01T17:04:37.082Z,20.24
2022-09-01T17:07:32.219Z,20.17
2022-09-01T17:10:34.990Z,19.84
2022-09-01T17:13:17.017Z,19.84
2022-09-01T17:15:49.415Z,19.79
2022-09-01T17:18:34.486Z,19.67
2022-09-01T17:21:13.978Z,19.39
2022-09-01T17:24:19.349Z,19.41
2022-09-01T17:26:50.709Z,19.38
2022-09-01T17:29:25.943Z,19.33
2022-09-01T17:32:13.929Z,19.27
2022-09-01T17:34:59.666Z,19.16
2022-09-01T17:37:51.634Z,19.07
2022-09-01T17:40:33.242Z,19.09
2022-09-01T17:43:06.153Z,18.77
2022-09-01T17:45:37.202Z,18.97
2022-09-01T17:48:18.116Z,19.00
2022-09-01T17:51:06.452Z,19.06
2022-09-01T17:53:43.357Z,18.76
2022-09-01T17:56:28.934Z,18.35
2022-09-01T17:59:14.342Z,17.93
2022-09-01T18:02:05.830Z,17.89
2022-09-01T18:04:52.532Z,18.09
2022-09-01T18:07:43.634Z,17.77
2022-09-01T18:10:14.944Z,17.60
2022-09-01T18:12:44.020Z,17.49
2022-09-01T18:15:19.729Z,17.58
2022-09-01T18:18:14.618Z,17.29
2022-09-01T18:20:46.752Z,17.37
2022-09-01T18:23:18.794Z,17.13
2022-09-01T18:25:57.618Z,17.22
2022-09-01T18:28:24.276Z,17.08
2022-09-01T18:31:00.904Z,17.03
2022-09-01T18:33:35.475Z,16.64
2022-09-01T18:36:35.575Z,16.82
2022-09-01T18:39:12.895Z,16.38
2022-09-01T18:42:26.891Z,16.41
2022-09-01T18:44:53.909Z,16.30
2022-09-01T18:47:32.478Z,16.23
2022-09-01T18:50:08.209Z,15.86
2022-09-01T18:52:47.681Z,15.67
2022-09-01T18:55:50.498Z,15.72
2022-09-01T18:58:43.074Z,15.77
2022-09-01T19:01:29.123Z,15.82
2022-09-01T19:04:18.799Z,15.86
2022-09-01T19:06:59.879Z,15.71
2022-09-01T19:09:32.090Z,15.50
2022-09-01T19:12:14.917Z,15.56
2022-09-01T19:15:10.126Z,15.59
2022-09-01T19:18:04.093Z,15.57
2022-09-01T19:20:52.283Z,15.31
2022-09-01T19:23:25.153Z,15.22
2022-09-01T19:25:58.645Z,15.37
2022-09-01T19:28:31.956Z,15.40
2022-09-01T19:31:23.817Z,15.24
2022-09-01T19:33:59.406Z,15.10
2022-09-01T19:36:36.403Z,15.15
2022-09-01T19:39:06.824Z,14.69
2022-09-01T19:41:43.331Z,14.81
2022-09-01T19:44:34.053Z,15.03
2022-09-01T19:47:07.797Z,14.86
2022-09-01T19:49:56.781Z,14.88
2022-09-01T19:52:39.978Z,14.80
2022-09-01T19:55:11.485Z,14.90
2022-09-01T19:57:50.370Z,14.67
2022-09-01T20:01:01.368Z,14.59
2022-09-01T20:03:42.796Z,14.42
2022-09-01T20:06:11.978Z,14.38
2022-09-01T20:08:54.905Z,14.88
2022-09-01T20:11:44.901Z,14.86
2022-09-01T20:14:27.400Z,14.91
2022-09-01T20:17:01.007Z,14.75
2022-09-01T20:19:41.234Z,14.52
2022-09-01T20:22:45.875Z,14.49
2022-09-01T20:25:22.402Z,14.46
2022-09-01T20:28:12.674Z,14.85
2022-09-01T20:30:55.231Z,14.64
2022-09-01T20:33:30.957Z,14.41
2022-09-01T20:36:08.829Z,14.54
2022-09-01T20:39:19.154Z,14.51
2022-09-01T20:42:04.646Z,14.28
2022-09-01T20:44:57.277Z,14.32
2022-09-01T20:47:27.213Z,14.28
2022-09-01T20:49:54.195Z,14.17
2022-09-01T20:52:56.210Z,14.36
2022-09-01T20:56:04.422Z,14.23
2022-09-01T20:58:37.351Z,14.30
2022-09-01T21:01:16.830Z,14.32
2022-09-01T21:03:48.333Z,14.56
2022-09-01T21:06:43.522Z,14.34
2022-09-01T21:09:18.938Z,14.39
2022-09-01T21:11:57.565Z,14.26
2022-09-01T21:14:37.135Z,13.84
2022-09-01T21:17:17.547Z,13.88
2022-09-01T21:19:53.881Z,13.75
2022-09-01T21:22:22.424Z,13.68
2022-09-01T21:24:49.418Z,13.58
2022-09-01T21:27:22.547Z,13.70
2022-09-01T21:29:52.642Z,13.55
2022-09-01T21:32:19.758Z,13.74
2022-09-01T21:34:47.516Z,13.66
2022-09-01T21:37:14.615Z,13.62
2022-09-01T21:39:41.370Z,13.55
2022-09-01T21:42:10.752Z,13.40
2022-09-01T21:44:38.718Z,13.70
2022-09-01T21:47:05.679Z,13.73
2022-09-01T21:49:33.359Z,13.55
2022-09-01T21:52:00.551Z,13.42
2022-09-01T21:54:27.204Z,13.60
2022-09-01T21:56:54.181Z,13.50
2022-09-01T21:59:21.011Z,13.52
2022-09-01T22:01:48.592Z,13.65
2022-09-01T22:04:15.380Z,13.42
2022-09-01T22:06:42.363Z,13.36
2022-09-01T22:09:20.315Z,13.15
2022-09-01T22:11:49.857Z,13.23
2022-09-01T22:14:16.645Z,13.23
2022-09-01T22:16:43.360Z,13.48
2022-09-01T22:19:10.043Z,13.02
2022-09-01T22:21:37.807Z,13.05
2022-09-01T22:24:05.810Z,13.02
2022-09-01T22:26:33.761Z,13.09
2022-09-01T22:29:02.625Z,13.19
2022-09-01T22:31:31.843Z,13.02
2022-09-01T22:33:58.769Z,13.10
2022-09-01T22:36:32.107Z,13.01
2022-09-01T22:38:59.798Z,12.90
2022-09-01T22:41:28.657Z,12.96
2022-09-01T22:43:56.779Z,12.95
2022-09-01T22:46:24.727Z,13.04
2022-09-01T22:48:51.562Z,12.93
2022-09-01T22:51:19.030Z,12.99
2022-09-01T22:53:46.810Z,12.79
2022-09-01T22:56:28.046Z,12.93
2022-09-01T22:59:01.230Z,13.03
2022-09-01T23:01:31.623Z,12.66
2022-09-01T23:04:01.901Z,12.60
2022-09-01T23:06:29.906Z,12.78
2022-09-01T23:08:58.031Z,12.58
2022-09-01T23:11:26.323Z,12.87
2022-09-01T23:13:53.974Z,12.74
2022-09-01T23:16:22.688Z,12.64
2022-09-01T23:18:51.115Z,12.71
2022-09-01T23:21:21.145Z,12.82
2022-09-01T23:23:48.096Z,12.61
2022-09-01T23:26:22.393Z,12.51
2022-09-01T23:28:49.617Z,12.47
2022-09-01T23:31:20.229Z,12.60
2022-09-01T23:33:48.769Z,12.71
2022-09-01T23:36:18.696Z,12.56
2022-09-01T23:38:47.007Z,12.50
2022-09-01T23:41:23.041Z,12.37
2022-09-01T23:43:51.114Z,12.28
2022-09-01T23:46:30.056Z,12.14
2022-09-01T23:48:57.085Z,12.15
2022-09-01T23:51:24.885Z,12.27
2022-09-01T23:53:52.126Z,12.09
2022-09-01T23:56:22.331Z,12.09
2022-09-01T23:58:49.378Z,12.32
